Terminal Aerodrome Forecast
Issued by NWS Twin Cities, MN

Home | Current Version | Previous Version | Text Only | Print | Product List | Glossary On
Versions: 1 2 3 4 5 6 7 8 9 10 11 12 13 14 15 16 17 18 19 20 21 22
000
FTUS43 KMPX 270900 AAB
TAFMSP
TAF AMD
KMSP 270900Z 2709/2812 35010KT 1 1/2SM -SN SCT008 OVC012
     FM271300 33009KT 4SM -SN SCT008 OVC015
     FM271600 30008KT P6SM BKN020
     FM272000 27008KT P6SM SCT020 BKN080
     FM280200 24006KT P6SM SCT080 BKN250=

USA.gov is the U.S. government's official web portal to all federal, state and local government web resources and services.